Ryosui — JD4228 — position and weather

sailwx.info

Track history (hours):
 
Tides and Currents Weather Stations Pressure Air Temp Water Temp Dewpoint Dewpoint Depression Visibility Wind Speed Wind Dir Waves Ship Positions

Ryosui

Last reported at 2018-Jun-18 09:33 UTC. Time now 2018-Jun-21 23:59 UTC.
Position N 35°13' E 139°46'.

Length 67 m; draft 4.8 m.

Type: Tanker. MMSI: 431009833.

Date/timePositionNaut miles runAvg speedWind from/ knotsBaromVisibWave heightAir tempDewpointWater temp
2018-Jun-18 09:33N 35°13' E 139°46'112.3
2018-Jun-18 09:30N 35°14' E 139°46'611.7
2018-Jun-18 09:00N 35°19' E 139°43'611.5
2018-Jun-18 08:31N 35°25' E 139°43'5 9.0
2018-Jun-18 07:59N 35°29' E 139°46'0 0.1
2018-Jun-18 07:26N 35°29' E 139°46'0 0.0
2018-Jun-18 06:59N 35°29' E 139°46'0 0.0
2018-Jun-18 06:29N 35°29' E 139°46'0 0.0
2018-Jun-18 05:59N 35°29' E 139°46'0 0.0
2018-Jun-18 05:26N 35°29' E 139°46'0 0.0
2018-Jun-18 04:59N 35°29' E 139°46'0 0.0
2018-Jun-18 04:29N 35°29' E 139°46'0 0.0
2018-Jun-18 03:59N 35°29' E 139°46'0 0.0
2018-Jun-18 03:29N 35°29' E 139°46'0 0.0
2018-Jun-18 02:59N 35°29' E 139°46'0 0.0
2018-Jun-18 02:29N 35°29' E 139°46'0 0.0
2018-Jun-18 01:59N 35°29' E 139°46'0 0.0
2018-Jun-18 01:29N 35°29' E 139°46'0 0.0
2018-Jun-18 00:59N 35°29' E 139°46'0 0.0
2018-Jun-18 00:29N 35°29' E 139°46'0 0.0
2018-Jun-17 23:59N 35°29' E 139°46'0 0.1
2018-Jun-17 23:29N 35°29' E 139°46'0 0.0
2018-Jun-17 22:59N 35°29' E 139°46'0 0.0
2018-Jun-17 22:29N 35°29' E 139°46'0 0.0
2018-Jun-17 21:59N 35°29' E 139°46'0 0.0
2018-Jun-17 21:29N 35°29' E 139°46'0 0.0
2018-Jun-17 20:59N 35°29' E 139°46'0 0.0
2018-Jun-17 20:26N 35°29' E 139°46'0 0.0
2018-Jun-17 19:59N 35°29' E 139°46'0 0.0
2018-Jun-17 19:29N 35°29' E 139°46'0 0.0
2018-Jun-17 18:59N 35°29' E 139°46'0 0.0
2018-Jun-17 18:29N 35°29' E 139°46'0 0.1
2018-Jun-17 17:59N 35°29' E 139°46'0 0.0
2018-Jun-17 17:29N 35°29' E 139°46'0 0.0
2018-Jun-17 16:59N 35°29' E 139°46'0 0.0
2018-Jun-17 16:29N 35°29' E 139°46'0 0.0
2018-Jun-17 15:59N 35°29' E 139°46'0 0.0
2018-Jun-17 15:29N 35°29' E 139°46'0 0.0
2018-Jun-17 14:59N 35°29' E 139°46'0 0.0
2018-Jun-17 14:29N 35°29' E 139°46'0 0.0
2018-Jun-17 13:56N 35°29' E 139°46'0 0.0
2018-Jun-17 12:17N 35°29' E 139°46'0 0.0
2018-Jun-17 11:59N 35°29' E 139°46'0 0.0
2018-Jun-17 10:32N 35°29' E 139°46'0 0.0
2018-Jun-17 10:29N 35°29' E 139°46'0 0.0
2018-Jun-17 09:59N 35°29' E 139°46'0 0.0
2018-Jun-17 09:29N 35°29' E 139°46'0 0.0
2018-Jun-17 08:59N 35°29' E 139°46'0 0.0
2018-Jun-17 08:30N 35°29' E 139°46'2 3.4
2018-Jun-17 08:00N 35°30' E 139°47'2 0.3
2018-Jun-17 02:06N 35°30' E 139°45'0 0.0
2018-Jun-17 02:00N 35°30' E 139°45'2 4.8
2018-Jun-17 01:30N 35°30' E 139°48'2 3.5
2018-Jun-17 00:57N 35°29' E 139°46'0 0.0
2018-Jun-17 00:30N 35°29' E 139°46'0 0.0
2018-Jun-17 00:00N 35°29' E 139°46'0 0.0
2018-Jun-16 23:30N 35°29' E 139°46'0 0.0
2018-Jun-16 23:00N 35°29' E 139°46'2 4.1
2018-Jun-16 22:30N 35°27' E 139°46'612.1
2018-Jun-16 22:00N 35°21' E 139°45'611.2
2018-Jun-16 21:30N 35°15' E 139°47'1 0.0
2018-Jun-15 06:30N 35°14' E 139°46'611.5
2018-Jun-15 06:00N 35°19' E 139°43'612.1
2018-Jun-15 05:30N 35°25' E 139°42'5 9.8
2018-Jun-15 05:00N 35°30' E 139°44'1 1.1
2018-Jun-15 04:21N 35°30' E 139°45'0 0.0
2018-Jun-15 00:52N 35°30' E 139°45'0 0.0
2018-Jun-15 00:30N 35°30' E 139°45'3 5.0
2018-Jun-15 00:00N 35°29' E 139°42'2 4.9
2018-Jun-14 23:30N 35°28' E 139°45'1 1.9
2018-Jun-14 23:00N 35°29' E 139°46'0 0.0
2018-Jun-14 22:30N 35°29' E 139°46'0 0.0
2018-Jun-14 22:00N 35°29' E 139°46'0 0.0
2018-Jun-14 21:30N 35°29' E 139°46'0 0.0
2018-Jun-14 21:00N 35°29' E 139°46'0 0.0
2018-Jun-14 20:30N 35°29' E 139°46'0 0.0
2018-Jun-14 20:00N 35°29' E 139°46'0 0.0
2018-Jun-14 19:30N 35°29' E 139°46'0 0.0
2018-Jun-14 19:00N 35°29' E 139°46'0 0.0
2018-Jun-14 18:30N 35°29' E 139°46'0 0.0
2018-Jun-14 18:00N 35°29' E 139°46'0 0.0
2018-Jun-14 17:24N 35°29' E 139°46'0 0.0
2018-Jun-14 17:00N 35°29' E 139°46'0 0.0
2018-Jun-14 16:30N 35°29' E 139°46'0 0.0
2018-Jun-14 16:00N 35°29' E 139°46'0 0.0
2018-Jun-14 15:30N 35°29' E 139°46'0 0.0
2018-Jun-14 15:00N 35°29' E 139°46'0 0.0
2018-Jun-14 14:24N 35°29' E 139°46'0 0.0
2018-Jun-14 14:00N 35°29' E 139°46'0 0.0
2018-Jun-14 13:30N 35°29' E 139°46'0 0.0
2018-Jun-14 12:57N 35°29' E 139°46'0 0.0
2018-Jun-14 12:27N 35°29' E 139°46'0 0.0
2018-Jun-14 12:00N 35°29' E 139°46'0 0.0
2018-Jun-14 11:30N 35°29' E 139°46'0 0.0
2018-Jun-14 11:00N 35°29' E 139°46'0 0.0
2018-Jun-14 10:30N 35°29' E 139°46'0 0.0
2018-Jun-14 10:00N 35°29' E 139°46'0 0.0
2018-Jun-14 09:30N 35°29' E 139°46'0 0.0
2018-Jun-14 09:00N 35°29' E 139°46'0 0.0
2018-Jun-14 08:30N 35°29' E 139°46'0 0.0
2018-Jun-14 07:54N 35°29' E 139°46'0 0.0
2018-Jun-14 07:27N 35°29' E 139°46'0 0.0
2018-Jun-14 07:00N 35°29' E 139°46'0 0.0
2018-Jun-14 06:30N 35°29' E 139°46'0 0.0
2018-Jun-14 06:00N 35°29' E 139°46'0 0.0
2018-Jun-14 05:30N 35°29' E 139°46'0 0.0
2018-Jun-14 05:00N 35°29' E 139°46'0 0.0
2018-Jun-14 04:27N 35°29' E 139°46'0 0.0
2018-Jun-14 04:00N 35°29' E 139°46'0 0.0
2018-Jun-14 03:30N 35°29' E 139°46'0 0.0
2018-Jun-14 03:00N 35°29' E 139°46'0 0.0
2018-Jun-14 02:30N 35°29' E 139°46'0 0.0
2018-Jun-14 02:00N 35°29' E 139°46'0 0.0
2018-Jun-14 01:30N 35°29' E 139°46'0 0.0
2018-Jun-14 01:00N 35°29' E 139°46'0 0.0
2018-Jun-14 00:24N 35°29' E 139°46'0 0.0
2018-Jun-14 00:00N 35°29' E 139°46'0 0.0
2018-Jun-13 23:30N 35°29' E 139°46'0 0.0
2018-Jun-13 22:57N 35°29' E 139°46'0 0.1
2018-Jun-13 22:30N 35°29' E 139°46'0 0.0
2018-Jun-13 22:00N 35°29' E 139°46'0 0.0
2018-Jun-13 21:27N 35°29' E 139°46'0 0.0
2018-Jun-13 21:00N 35°29' E 139°46'0 0.0
2018-Jun-13 20:30N 35°29' E 139°46'0 0.1
2018-Jun-13 20:00N 35°29' E 139°46'0 0.0
2018-Jun-13 19:27N 35°29' E 139°46'0 0.0
2018-Jun-13 18:51N 35°29' E 139°46'0 0.0
2018-Jun-13 18:21N 35°29' E 139°46'0 0.0
2018-Jun-13 18:00N 35°29' E 139°46'0 0.0
2018-Jun-13 17:30N 35°29' E 139°46'0 0.0
2018-Jun-13 16:57N 35°29' E 139°46'0 0.0
2018-Jun-13 16:21N 35°29' E 139°46'0 0.0
2018-Jun-13 16:00N 35°29' E 139°46'0 0.0
2018-Jun-13 15:02N 35°29' E 139°46'0 0.0
2018-Jun-13 14:59N 35°29' E 139°46'0 0.1
2018-Jun-13 14:30N 35°29' E 139°46'0 0.0
2018-Jun-13 13:59N 35°29' E 139°46'0 0.0
2018-Jun-13 13:30N 35°29' E 139°46'0 0.0
2018-Jun-13 13:00N 35°29' E 139°46'0 0.0
2018-Jun-13 12:30N 35°29' E 139°46'0 0.0
2018-Jun-13 12:00N 35°29' E 139°46'0 0.1
2018-Jun-13 11:30N 35°29' E 139°46'2 4.9
2018-Jun-13 11:00N 35°26' E 139°46'612.5
2018-Jun-13 10:30N 35°20' E 139°45'611.4
2018-Jun-13 10:00N 35°15' E 139°47'24911.1
2018-Jun-12 11:37N 33°50' E 135°03'113.5
2018-Jun-12 11:30N 33°51' E 135°02'612.7
2018-Jun-12 11:00N 33°57' E 135°00'612.4
2018-Jun-12 10:30N 34°04' E 134°60'612.6
2018-Jun-12 10:00N 34°10' E 134°59'612.3
2018-Jun-12 09:30N 34°16' E 134°59'510.9
2018-Jun-12 09:00N 34°21' E 134°59'611.9
2018-Jun-12 08:30N 34°27' E 135°01'611.7
2018-Jun-12 08:00N 34°33' E 135°02'4 8.7
2018-Jun-12 07:30N 34°37' E 135°00'711.5
2018-Jun-12 06:56N 34°38' E 134°53'13 0.4
2018-Jun-10 22:50N 34°41' E 134°37'1412.2
2018-Jun-10 21:41N 34°28' E 134°38'212.5
2018-Jun-10 21:30N 34°25' E 134°38'612.7
2018-Jun-10 21:00N 34°19' E 134°38'1212.9
2018-Jun-10 20:03N 34°08' E 134°45'112.7
2018-Jun-10 19:56N 34°07' E 134°46'512.7
2018-Jun-10 19:31N 34°03' E 134°51'612.6
2018-Jun-10 19:00N 33°58' E 134°56'612.6
2018-Jun-10 18:30N 33°53' E 135°00'8 0.2
2018-Jun-09 09:38N 33°47' E 135°06'413.2
2018-Jun-09 09:20N 33°50' E 135°03'413.1
2018-Jun-09 09:01N 33°53' E 135°00'612.8
2018-Jun-09 08:30N 33°58' E 134°55'712.8
2018-Jun-09 07:58N 34°03' E 134°50'612.7
2018-Jun-09 07:29N 34°08' E 134°45'612.2
2018-Jun-09 07:00N 34°12' E 134°40'911.3
2018-Jun-09 06:11N 34°18' E 134°31'  
Track history (hours):
 
Tides and Currents Weather Stations Pressure Air Temp Water Temp Dewpoint Dewpoint Depression Visibility Wind Speed Wind Dir Waves Ship Positions

Ryosui

Last reported at 2018-Jun-18 09:33 UTC. Time now 2018-Jun-21 23:59 UTC.
Position N 35°13' E 139°46'.

Length 67 m; draft 4.8 m.

Type: Tanker. MMSI: 431009833.

Date/timePositionNaut miles runAvg speedWind from/ knotsBaromVisibWave heightAir tempDewpointWater temp
2018-Jun-18 09:33N 35°13' E 139°46'112.3
2018-Jun-18 09:30N 35°14' E 139°46'611.7
2018-Jun-18 09:00N 35°19' E 139°43'611.5
2018-Jun-18 08:31N 35°25' E 139°43'5 9.0
2018-Jun-18 07:59N 35°29' E 139°46'0 0.1
2018-Jun-18 07:26N 35°29' E 139°46'0 0.0
2018-Jun-18 06:59N 35°29' E 139°46'0 0.0
2018-Jun-18 06:29N 35°29' E 139°46'0 0.0
2018-Jun-18 05:59N 35°29' E 139°46'0 0.0
2018-Jun-18 05:26N 35°29' E 139°46'0 0.0
2018-Jun-18 04:59N 35°29' E 139°46'0 0.0
2018-Jun-18 04:29N 35°29' E 139°46'0 0.0
2018-Jun-18 03:59N 35°29' E 139°46'0 0.0
2018-Jun-18 03:29N 35°29' E 139°46'0 0.0
2018-Jun-18 02:59N 35°29' E 139°46'0 0.0
2018-Jun-18 02:29N 35°29' E 139°46'0 0.0
2018-Jun-18 01:59N 35°29' E 139°46'0 0.0
2018-Jun-18 01:29N 35°29' E 139°46'0 0.0
2018-Jun-18 00:59N 35°29' E 139°46'0 0.0
2018-Jun-18 00:29N 35°29' E 139°46'0 0.0
2018-Jun-17 23:59N 35°29' E 139°46'0 0.1
2018-Jun-17 23:29N 35°29' E 139°46'0 0.0
2018-Jun-17 22:59N 35°29' E 139°46'0 0.0
2018-Jun-17 22:29N 35°29' E 139°46'0 0.0
2018-Jun-17 21:59N 35°29' E 139°46'0 0.0
2018-Jun-17 21:29N 35°29' E 139°46'0 0.0
2018-Jun-17 20:59N 35°29' E 139°46'0 0.0
2018-Jun-17 20:26N 35°29' E 139°46'0 0.0
2018-Jun-17 19:59N 35°29' E 139°46'0 0.0
2018-Jun-17 19:29N 35°29' E 139°46'0 0.0
2018-Jun-17 18:59N 35°29' E 139°46'0 0.0
2018-Jun-17 18:29N 35°29' E 139°46'0 0.1
2018-Jun-17 17:59N 35°29' E 139°46'0 0.0
2018-Jun-17 17:29N 35°29' E 139°46'0 0.0
2018-Jun-17 16:59N 35°29' E 139°46'0 0.0
2018-Jun-17 16:29N 35°29' E 139°46'0 0.0
2018-Jun-17 15:59N 35°29' E 139°46'0 0.0
2018-Jun-17 15:29N 35°29' E 139°46'0 0.0
2018-Jun-17 14:59N 35°29' E 139°46'0 0.0
2018-Jun-17 14:29N 35°29' E 139°46'0 0.0
2018-Jun-17 13:56N 35°29' E 139°46'0 0.0
2018-Jun-17 12:17N 35°29' E 139°46'0 0.0
2018-Jun-17 11:59N 35°29' E 139°46'0 0.0
2018-Jun-17 10:32N 35°29' E 139°46'0 0.0
2018-Jun-17 10:29N 35°29' E 139°46'0 0.0
2018-Jun-17 09:59N 35°29' E 139°46'0 0.0
2018-Jun-17 09:29N 35°29' E 139°46'0 0.0
2018-Jun-17 08:59N 35°29' E 139°46'0 0.0
2018-Jun-17 08:30N 35°29' E 139°46'2 3.4
2018-Jun-17 08:00N 35°30' E 139°47'2 0.3
2018-Jun-17 02:06N 35°30' E 139°45'0 0.0
2018-Jun-17 02:00N 35°30' E 139°45'2 4.8
2018-Jun-17 01:30N 35°30' E 139°48'2 3.5
2018-Jun-17 00:57N 35°29' E 139°46'0 0.0
2018-Jun-17 00:30N 35°29' E 139°46'0 0.0
2018-Jun-17 00:00N 35°29' E 139°46'0 0.0
2018-Jun-16 23:30N 35°29' E 139°46'0 0.0
2018-Jun-16 23:00N 35°29' E 139°46'2 4.1
2018-Jun-16 22:30N 35°27' E 139°46'612.1
2018-Jun-16 22:00N 35°21' E 139°45'611.2
2018-Jun-16 21:30N 35°15' E 139°47'1 0.0
2018-Jun-15 06:30N 35°14' E 139°46'611.5
2018-Jun-15 06:00N 35°19' E 139°43'612.1
2018-Jun-15 05:30N 35°25' E 139°42'5 9.8
2018-Jun-15 05:00N 35°30' E 139°44'1 1.1
2018-Jun-15 04:21N 35°30' E 139°45'0 0.0
2018-Jun-15 00:52N 35°30' E 139°45'0 0.0
2018-Jun-15 00:30N 35°30' E 139°45'3 5.0
2018-Jun-15 00:00N 35°29' E 139°42'2 4.9
2018-Jun-14 23:30N 35°28' E 139°45'1 1.9
2018-Jun-14 23:00N 35°29' E 139°46'0 0.0
2018-Jun-14 22:30N 35°29' E 139°46'0 0.0
2018-Jun-14 22:00N 35°29' E 139°46'0 0.0
2018-Jun-14 21:30N 35°29' E 139°46'0 0.0
2018-Jun-14 21:00N 35°29' E 139°46'0 0.0
2018-Jun-14 20:30N 35°29' E 139°46'0 0.0
2018-Jun-14 20:00N 35°29' E 139°46'0 0.0
2018-Jun-14 19:30N 35°29' E 139°46'0 0.0
2018-Jun-14 19:00N 35°29' E 139°46'0 0.0
2018-Jun-14 18:30N 35°29' E 139°46'0 0.0
2018-Jun-14 18:00N 35°29' E 139°46'0 0.0
2018-Jun-14 17:24N 35°29' E 139°46'0 0.0
2018-Jun-14 17:00N 35°29' E 139°46'0 0.0
2018-Jun-14 16:30N 35°29' E 139°46'0 0.0
2018-Jun-14 16:00N 35°29' E 139°46'0 0.0
2018-Jun-14 15:30N 35°29' E 139°46'0 0.0
2018-Jun-14 15:00N 35°29' E 139°46'0 0.0
2018-Jun-14 14:24N 35°29' E 139°46'0 0.0
2018-Jun-14 14:00N 35°29' E 139°46'0 0.0
2018-Jun-14 13:30N 35°29' E 139°46'0 0.0
2018-Jun-14 12:57N 35°29' E 139°46'0 0.0
2018-Jun-14 12:27N 35°29' E 139°46'0 0.0
2018-Jun-14 12:00N 35°29' E 139°46'0 0.0
2018-Jun-14 11:30N 35°29' E 139°46'0 0.0
2018-Jun-14 11:00N 35°29' E 139°46'0 0.0
2018-Jun-14 10:30N 35°29' E 139°46'0 0.0
2018-Jun-14 10:00N 35°29' E 139°46'0 0.0
2018-Jun-14 09:30N 35°29' E 139°46'0 0.0
2018-Jun-14 09:00N 35°29' E 139°46'0 0.0
2018-Jun-14 08:30N 35°29' E 139°46'0 0.0
2018-Jun-14 07:54N 35°29' E 139°46'0 0.0
2018-Jun-14 07:27N 35°29' E 139°46'0 0.0
2018-Jun-14 07:00N 35°29' E 139°46'0 0.0
2018-Jun-14 06:30N 35°29' E 139°46'0 0.0
2018-Jun-14 06:00N 35°29' E 139°46'0 0.0
2018-Jun-14 05:30N 35°29' E 139°46'0 0.0
2018-Jun-14 05:00N 35°29' E 139°46'0 0.0
2018-Jun-14 04:27N 35°29' E 139°46'0 0.0
2018-Jun-14 04:00N 35°29' E 139°46'0 0.0
2018-Jun-14 03:30N 35°29' E 139°46'0 0.0
2018-Jun-14 03:00N 35°29' E 139°46'0 0.0
2018-Jun-14 02:30N 35°29' E 139°46'0 0.0
2018-Jun-14 02:00N 35°29' E 139°46'0 0.0
2018-Jun-14 01:30N 35°29' E 139°46'0 0.0
2018-Jun-14 01:00N 35°29' E 139°46'0 0.0
2018-Jun-14 00:24N 35°29' E 139°46'0 0.0
2018-Jun-14 00:00N 35°29' E 139°46'0 0.0
2018-Jun-13 23:30N 35°29' E 139°46'0 0.0
2018-Jun-13 22:57N 35°29' E 139°46'0 0.1
2018-Jun-13 22:30N 35°29' E 139°46'0 0.0
2018-Jun-13 22:00N 35°29' E 139°46'0 0.0
2018-Jun-13 21:27N 35°29' E 139°46'0 0.0
2018-Jun-13 21:00N 35°29' E 139°46'0 0.0
2018-Jun-13 20:30N 35°29' E 139°46'0 0.1
2018-Jun-13 20:00N 35°29' E 139°46'0 0.0
2018-Jun-13 19:27N 35°29' E 139°46'0 0.0
2018-Jun-13 18:51N 35°29' E 139°46'0 0.0
2018-Jun-13 18:21N 35°29' E 139°46'0 0.0
2018-Jun-13 18:00N 35°29' E 139°46'0 0.0
2018-Jun-13 17:30N 35°29' E 139°46'0 0.0
2018-Jun-13 16:57N 35°29' E 139°46'0 0.0
2018-Jun-13 16:21N 35°29' E 139°46'0 0.0
2018-Jun-13 16:00N 35°29' E 139°46'0 0.0
2018-Jun-13 15:02N 35°29' E 139°46'0 0.0
2018-Jun-13 14:59N 35°29' E 139°46'0 0.1
2018-Jun-13 14:30N 35°29' E 139°46'0 0.0
2018-Jun-13 13:59N 35°29' E 139°46'0 0.0
2018-Jun-13 13:30N 35°29' E 139°46'0 0.0
2018-Jun-13 13:00N 35°29' E 139°46'0 0.0
2018-Jun-13 12:30N 35°29' E 139°46'0 0.0
2018-Jun-13 12:00N 35°29' E 139°46'0 0.1
2018-Jun-13 11:30N 35°29' E 139°46'2 4.9
2018-Jun-13 11:00N 35°26' E 139°46'612.5
2018-Jun-13 10:30N 35°20' E 139°45'611.4
2018-Jun-13 10:00N 35°15' E 139°47'24911.1
2018-Jun-12 11:37N 33°50' E 135°03'113.5
2018-Jun-12 11:30N 33°51' E 135°02'612.7
2018-Jun-12 11:00N 33°57' E 135°00'612.4
2018-Jun-12 10:30N 34°04' E 134°60'612.6
2018-Jun-12 10:00N 34°10' E 134°59'612.3
2018-Jun-12 09:30N 34°16' E 134°59'510.9
2018-Jun-12 09:00N 34°21' E 134°59'611.9
2018-Jun-12 08:30N 34°27' E 135°01'611.7
2018-Jun-12 08:00N 34°33' E 135°02'4 8.7
2018-Jun-12 07:30N 34°37' E 135°00'711.5
2018-Jun-12 06:56N 34°38' E 134°53'13 0.4
2018-Jun-10 22:50N 34°41' E 134°37'1412.2
2018-Jun-10 21:41N 34°28' E 134°38'212.5
2018-Jun-10 21:30N 34°25' E 134°38'612.7
2018-Jun-10 21:00N 34°19' E 134°38'1212.9
2018-Jun-10 20:03N 34°08' E 134°45'112.7
2018-Jun-10 19:56N 34°07' E 134°46'512.7
2018-Jun-10 19:31N 34°03' E 134°51'612.6
2018-Jun-10 19:00N 33°58' E 134°56'612.6
2018-Jun-10 18:30N 33°53' E 135°00'8 0.2
2018-Jun-09 09:38N 33°47' E 135°06'413.2
2018-Jun-09 09:20N 33°50' E 135°03'413.1
2018-Jun-09 09:01N 33°53' E 135°00'612.8
2018-Jun-09 08:30N 33°58' E 134°55'712.8
2018-Jun-09 07:58N 34°03' E 134°50'612.7
2018-Jun-09 07:29N 34°08' E 134°45'612.2
2018-Jun-09 07:00N 34°12' E 134°40'911.3
2018-Jun-09 06:11N 34°18' E 134°31'  

Dump ship's entire track history